Orient, Iowa
Current Conditions -  °F | °C
As of 12:35 PM on Sunday 21 Dec 2014 (Local Time) from KCSQ Reporting Station
Overcast Overcast  
Wind Chill: 30°   Ceiling: 900
Heat Index: 39°   Visibility: 8mi
Dew Point: 39°   Wind: 20mph
Humidity: 100%   Direction: 180°S
Pressure: 29.85"   Gusts: 30mph
Location:  41.2°N, 94.41°W
Report Text: KCSQ 211835Z AUTO 18017G26KT 8SM OVC009 04/04 A2985 RMK AO2
Loading
Personal Weather Stations






























Interactive Weather Map New forecast layout! Learn more

10-Day Weather Forecast

Advertisements
Track Severe Weather on mobile